Terminal Aerodrome Forecast
Issued by NWS

Home | Current Version | Previous Version | Text Only | Print | Product List | Glossary On
Versions: 1 2 3 4 5 6 7 8 9 10 11 12 13 14 15 16
000
FTUS45 KFGZ 280142 AAA
TAFSEZ
TAF AMD
KSEZ 280142Z 2802/2824 VRB10G20KT P6SM VCTS SCT060CB BKN080
     FM280300 VRB05KT P6SM SCT080
     FM280600 05008KT P6SM SCT060 BKN080
     FM281700 VRB06KT P6SM SCT060 BKN080 PROB30 2818/2824 6SM -TSRA
      BKN070CB=

USA.gov is the U.S. government's official web portal to all federal, state and local government web resources and services.